createdAt,value
2023-03-07T00:00:22.081Z,2.30
2023-03-07T00:01:55.090Z,2.20
2023-03-07T00:03:28.486Z,2.20
2023-03-07T00:05:01.736Z,2.20
2023-03-07T00:06:35.178Z,2.20
2023-03-07T00:08:08.321Z,2.20
2023-03-07T00:09:42.918Z,2.30
2023-03-07T00:11:15.483Z,2.20
2023-03-07T00:12:48.571Z,2.20
2023-03-07T00:14:21.906Z,2.30
2023-03-07T00:15:55.079Z,2.20
2023-03-07T00:17:28.297Z,2.30
2023-03-07T00:19:01.833Z,2.30
2023-03-07T00:20:34.215Z,2.30
2023-03-07T00:22:07.328Z,2.30
2023-03-07T00:23:42.980Z,2.30
2023-03-07T00:25:18.871Z,2.30
2023-03-07T00:26:51.930Z,2.30
2023-03-07T00:28:24.292Z,2.30
2023-03-07T00:29:57.600Z,2.30
2023-03-07T00:31:30.956Z,2.30
2023-03-07T00:33:04.156Z,2.30
2023-03-07T00:34:37.372Z,2.30
2023-03-07T00:36:14.415Z,2.30
2023-03-07T00:37:46.591Z,2.30
2023-03-07T00:39:19.720Z,2.30
2023-03-07T00:41:06.922Z,2.30
2023-03-07T00:42:39.110Z,2.30
2023-03-07T00:44:12.187Z,2.30
2023-03-07T00:45:44.353Z,2.30
2023-03-07T00:47:17.594Z,2.30
2023-03-07T00:48:50.888Z,2.30
2023-03-07T00:50:24.046Z,2.30
2023-03-07T00:51:57.292Z,2.30
2023-03-07T00:53:31.067Z,2.20
2023-03-07T00:55:03.869Z,2.20
2023-03-07T00:56:38.448Z,2.20
2023-03-07T00:58:10.872Z,2.20
2023-03-07T00:59:44.093Z,2.20
2023-03-07T01:01:21.546Z,2.20
2023-03-07T01:02:57.007Z,2.20
2023-03-07T01:04:30.445Z,2.20
2023-03-07T01:06:05.782Z,2.20
2023-03-07T01:07:38.255Z,2.30
2023-03-07T01:09:12.302Z,2.20
2023-03-07T01:10:46.207Z,2.20
2023-03-07T01:12:20.798Z,2.20
2023-03-07T01:13:56.942Z,2.20
2023-03-07T01:15:29.236Z,2.20
2023-03-07T01:17:03.866Z,2.20
2023-03-07T01:18:37.306Z,2.20
2023-03-07T01:20:12.835Z,2.20
2023-03-07T01:21:46.929Z,2.20
2023-03-07T01:23:20.060Z,2.20
2023-03-07T01:24:53.401Z,2.20
2023-03-07T01:26:29.531Z,2.20
2023-03-07T01:28:04.674Z,2.20
2023-03-07T01:29:38.042Z,2.30
2023-03-07T01:31:12.454Z,2.20
2023-03-07T01:32:49.018Z,2.20
2023-03-07T01:34:23.292Z,2.20
2023-03-07T01:35:58.167Z,2.20
2023-03-07T01:37:31.502Z,2.30
2023-03-07T01:39:07.876Z,2.20
2023-03-07T01:40:42.589Z,2.30
2023-03-07T01:42:16.061Z,2.30
2023-03-07T01:43:50.412Z,2.20
2023-03-07T01:46:24.993Z,2.30
2023-03-07T01:48:00.728Z,2.20
2023-03-07T01:49:39.605Z,2.30
2023-03-07T01:51:12.287Z,2.30
2023-03-07T01:52:49.978Z,2.30
2023-03-07T01:54:25.414Z,2.30
2023-03-07T01:55:59.389Z,2.20
2023-03-07T01:57:37.901Z,2.20
2023-03-07T01:59:13.138Z,2.20
2023-03-07T02:00:47.250Z,2.30
2023-03-07T02:02:23.087Z,2.30
2023-03-07T02:04:02.841Z,2.30
2023-03-07T02:05:39.031Z,2.30
2023-03-07T02:07:14.539Z,2.30
2023-03-07T02:08:50.651Z,2.30
2023-03-07T02:10:25.703Z,2.30
2023-03-07T02:12:02.965Z,2.30
2023-03-07T02:13:37.490Z,2.30
2023-03-07T02:15:15.860Z,2.30
2023-03-07T02:16:49.955Z,2.30
2023-03-07T02:18:29.530Z,2.40
2023-03-07T02:20:21.889Z,2.40
2023-03-07T02:22:08.832Z,2.40
2023-03-07T02:23:53.706Z,2.40
2023-03-07T02:25:37.769Z,2.50
2023-03-07T02:27:12.531Z,2.50
2023-03-07T02:28:48.853Z,2.50
2023-03-07T02:30:22.017Z,2.50
2023-03-07T02:31:57.800Z,2.50
2023-03-07T02:33:31.540Z,2.50
2023-03-07T02:35:17.304Z,2.50
2023-03-07T02:36:59.614Z,2.60
2023-03-07T02:38:39.897Z,2.60
2023-03-07T02:40:17.476Z,2.60
2023-03-07T02:41:55.025Z,2.60
2023-03-07T02:43:37.489Z,2.60
2023-03-07T02:45:15.290Z,2.70
2023-03-07T02:46:48.540Z,2.60
2023-03-07T02:48:22.197Z,2.70
2023-03-07T02:49:56.080Z,2.70
2023-03-07T02:51:29.234Z,2.70
2023-03-07T02:53:02.594Z,2.70
2023-03-07T02:54:35.795Z,2.70
2023-03-07T02:56:09.225Z,2.70
2023-03-07T02:57:42.378Z,2.70
2023-03-07T02:59:16.006Z,2.80
2023-03-07T03:00:49.437Z,2.70
2023-03-07T03:02:23.429Z,2.80
2023-03-07T03:03:57.118Z,2.80
2023-03-07T03:05:30.652Z,2.80
2023-03-07T03:07:03.842Z,2.80
2023-03-07T03:08:36.125Z,2.80
2023-03-07T03:10:10.845Z,2.90
2023-03-07T03:11:44.070Z,2.80
2023-03-07T03:13:18.122Z,2.80
2023-03-07T03:14:52.577Z,2.90
2023-03-07T03:16:25.892Z,2.80
2023-03-07T03:17:58.719Z,2.80
2023-03-07T03:19:31.882Z,2.80
2023-03-07T03:21:09.162Z,2.90
2023-03-07T03:22:42.976Z,2.80
2023-03-07T03:24:17.414Z,2.90
2023-03-07T03:26:00.088Z,2.90
2023-03-07T03:27:35.653Z,2.90
2023-03-07T03:29:09.934Z,2.90
2023-03-07T03:30:44.356Z,2.90
2023-03-07T03:32:17.761Z,2.90
2023-03-07T03:33:54.550Z,2.90
2023-03-07T03:35:27.843Z,2.90
2023-03-07T03:37:03.812Z,2.90
2023-03-07T03:38:37.917Z,2.90
2023-03-07T03:40:17.117Z,2.90
2023-03-07T03:41:51.225Z,2.90
2023-03-07T03:43:26.336Z,2.90
2023-03-07T03:44:59.476Z,2.90
2023-03-07T03:46:33.999Z,3.00
2023-03-07T03:48:08.350Z,2.90
2023-03-07T03:49:41.392Z,2.90
2023-03-07T03:51:16.370Z,2.90
2023-03-07T03:52:50.568Z,3.00
2023-03-07T03:54:23.918Z,3.00
2023-03-07T03:56:07.010Z,3.00
2023-03-07T03:57:41.116Z,3.00
2023-03-07T03:59:15.170Z,3.00
2023-03-07T04:00:48.506Z,3.00
2023-03-07T04:02:23.264Z,3.00
2023-03-07T04:03:58.453Z,3.00
2023-03-07T04:05:34.823Z,3.00
2023-03-07T04:07:08.579Z,3.00
2023-03-07T04:08:42.659Z,3.00
2023-03-07T04:10:15.396Z,3.00
2023-03-07T04:11:48.517Z,3.00
2023-03-07T04:13:20.820Z,3.00
2023-03-07T04:14:53.971Z,3.00
2023-03-07T04:16:27.088Z,3.00
2023-03-07T04:18:02.546Z,3.00
2023-03-07T04:19:35.904Z,3.00
2023-03-07T04:21:11.157Z,3.00
2023-03-07T04:22:45.072Z,3.00
2023-03-07T04:24:17.341Z,3.00
2023-03-07T04:25:52.681Z,3.00
2023-03-07T04:27:26.003Z,3.00
2023-03-07T04:28:59.480Z,3.00
2023-03-07T04:30:39.809Z,3.00
2023-03-07T04:32:13.093Z,3.00
2023-03-07T04:33:48.818Z,3.00
2023-03-07T04:35:21.438Z,3.00
2023-03-07T04:36:54.901Z,3.00
2023-03-07T04:38:28.013Z,3.00
2023-03-07T04:40:01.379Z,3.00
2023-03-07T04:41:34.598Z,3.00
2023-03-07T04:43:14.905Z,3.00
2023-03-07T04:44:47.946Z,3.00
2023-03-07T04:46:21.568Z,3.00
2023-03-07T04:47:54.740Z,3.00
2023-03-07T04:49:29.538Z,3.00
2023-03-07T04:51:01.876Z,3.00
2023-03-07T04:52:35.241Z,3.00
2023-03-07T04:54:08.363Z,3.00
2023-03-07T04:55:42.190Z,3.00
2023-03-07T04:57:15.325Z,3.10
2023-03-07T04:58:48.891Z,3.00
2023-03-07T05:00:23.720Z,3.00
2023-03-07T05:01:57.288Z,3.00
2023-03-07T05:03:30.133Z,3.00
2023-03-07T05:05:06.845Z,3.10
2023-03-07T05:06:41.068Z,3.00
2023-03-07T05:08:15.311Z,3.00
2023-03-07T05:09:48.808Z,3.10
2023-03-07T05:11:22.219Z,3.10
2023-03-07T05:12:56.912Z,3.10
2023-03-07T05:14:30.562Z,3.10
2023-03-07T05:16:04.049Z,3.10
2023-03-07T05:17:38.393Z,3.10
2023-03-07T05:19:13.459Z,3.10
2023-03-07T05:20:48.354Z,3.10
2023-03-07T05:22:21.554Z,3.10
2023-03-07T05:23:55.074Z,3.10
2023-03-07T05:25:28.684Z,3.10
2023-03-07T05:27:02.360Z,3.10
2023-03-07T05:28:35.423Z,3.10
2023-03-07T05:30:11.025Z,3.10
2023-03-07T05:31:44.271Z,3.10
2023-03-07T05:33:17.873Z,3.10
2023-03-07T05:34:50.511Z,3.10
2023-03-07T05:36:28.016Z,3.10
2023-03-07T05:38:00.264Z,3.10
2023-03-07T05:39:33.998Z,3.10
2023-03-07T05:41:07.345Z,3.10
2023-03-07T05:42:40.811Z,3.10
2023-03-07T05:44:13.886Z,3.20
2023-03-07T05:45:46.059Z,3.20
2023-03-07T05:47:19.198Z,3.10
2023-03-07T05:48:52.325Z,3.20
2023-03-07T05:50:25.496Z,3.20
2023-03-07T05:51:59.997Z,3.10
2023-03-07T05:53:33.432Z,3.10
2023-03-07T05:55:07.437Z,3.20
2023-03-07T05:56:40.817Z,3.10
2023-03-07T05:58:14.195Z,3.10
2023-03-07T05:59:46.780Z,3.10
2023-03-07T06:01:19.976Z,3.20
2023-03-07T06:02:53.764Z,3.10
2023-03-07T06:04:27.143Z,3.10
2023-03-07T06:06:00.530Z,3.10
2023-03-07T06:07:35.103Z,3.10
2023-03-07T06:09:08.263Z,3.10
2023-03-07T06:10:42.991Z,3.10
2023-03-07T06:12:16.976Z,3.10
2023-03-07T06:13:50.289Z,3.10
2023-03-07T06:15:24.822Z,3.10
2023-03-07T06:17:07.062Z,3.10
2023-03-07T06:18:41.028Z,3.10
2023-03-07T06:20:15.979Z,3.10
2023-03-07T06:21:49.415Z,3.10
2023-03-07T06:23:24.223Z,3.10
2023-03-07T06:24:57.612Z,3.10
2023-03-07T06:26:31.801Z,3.10
2023-03-07T06:28:05.052Z,3.10
2023-03-07T06:29:38.379Z,3.10
2023-03-07T06:31:14.267Z,3.10
2023-03-07T06:32:47.702Z,3.10
2023-03-07T06:34:21.127Z,3.10
2023-03-07T06:35:54.766Z,3.10
2023-03-07T06:37:28.120Z,3.10
2023-03-07T06:39:05.922Z,3.10
2023-03-07T06:40:41.309Z,3.10
2023-03-07T06:42:17.251Z,3.10
2023-03-07T06:43:52.940Z,3.10
2023-03-07T06:45:31.887Z,3.10
2023-03-07T06:47:05.552Z,3.10
2023-03-07T06:48:38.868Z,3.10
2023-03-07T06:50:16.181Z,3.10
2023-03-07T06:51:51.037Z,3.10
2023-03-07T06:53:24.523Z,3.10
2023-03-07T06:54:59.095Z,3.10
2023-03-07T06:56:34.210Z,3.10
2023-03-07T06:58:07.953Z,3.10
2023-03-07T06:59:41.833Z,3.10
2023-03-07T07:01:19.218Z,3.10
2023-03-07T07:02:55.093Z,3.10
2023-03-07T07:04:28.617Z,3.10
2023-03-07T07:06:03.006Z,3.10
2023-03-07T07:07:37.127Z,3.10
2023-03-07T07:09:14.686Z,3.10
2023-03-07T07:10:49.524Z,3.10
2023-03-07T07:12:22.639Z,3.10
2023-03-07T07:13:56.569Z,3.10
2023-03-07T07:15:30.027Z,3.10
2023-03-07T07:17:03.250Z,3.10
2023-03-07T07:18:36.917Z,3.10
2023-03-07T07:20:13.651Z,3.10
2023-03-07T07:21:47.740Z,3.10
2023-03-07T07:23:21.147Z,3.10
2023-03-07T07:24:55.276Z,3.10
2023-03-07T07:26:29.880Z,3.10
2023-03-07T07:28:05.679Z,3.10
2023-03-07T07:29:39.839Z,3.10
2023-03-07T07:31:14.957Z,3.20
2023-03-07T07:32:48.577Z,3.20
2023-03-07T07:34:21.821Z,3.20
2023-03-07T07:35:55.048Z,3.20
2023-03-07T07:37:28.189Z,3.20
2023-03-07T07:39:05.051Z,3.20
2023-03-07T07:40:39.476Z,3.20
2023-03-07T07:42:14.468Z,3.20
2023-03-07T07:44:00.472Z,3.20
2023-03-07T07:45:40.665Z,3.20
2023-03-07T07:47:17.157Z,3.20
2023-03-07T07:48:50.447Z,3.20
2023-03-07T07:50:25.773Z,3.20
2023-03-07T07:51:59.042Z,3.20
2023-03-07T07:53:32.895Z,3.20
2023-03-07T07:55:07.131Z,3.20
2023-03-07T07:56:40.585Z,3.20
2023-03-07T07:58:15.305Z,3.20
2023-03-07T07:59:48.443Z,3.20
2023-03-07T08:01:24.866Z,3.30
2023-03-07T08:02:59.724Z,3.20
2023-03-07T08:04:33.066Z,3.20
2023-03-07T08:06:06.722Z,3.30
2023-03-07T08:07:39.812Z,3.30
2023-03-07T08:09:14.706Z,3.30
2023-03-07T08:10:48.674Z,3.30
2023-03-07T08:12:21.891Z,3.30
2023-03-07T08:13:56.908Z,3.30
2023-03-07T08:15:30.416Z,3.30
2023-03-07T08:17:03.822Z,3.30
2023-03-07T08:18:37.142Z,3.40
2023-03-07T08:20:12.721Z,3.40
2023-03-07T08:21:46.324Z,3.30
2023-03-07T08:23:19.431Z,3.40
2023-03-07T08:24:52.653Z,3.40
2023-03-07T08:26:25.723Z,3.40
2023-03-07T08:27:58.792Z,3.40
2023-03-07T08:29:35.180Z,3.40
2023-03-07T08:31:10.594Z,3.40
2023-03-07T08:32:43.960Z,3.40
2023-03-07T08:34:17.094Z,3.40
2023-03-07T08:35:50.409Z,3.40
2023-03-07T08:37:23.541Z,3.40
2023-03-07T08:38:56.609Z,3.50
2023-03-07T08:40:30.910Z,3.50
2023-03-07T08:42:04.213Z,3.50
2023-03-07T08:43:39.394Z,3.50
2023-03-07T08:45:15.154Z,3.50
2023-03-07T08:46:48.496Z,3.50
2023-03-07T08:48:21.897Z,3.50
2023-03-07T08:49:54.998Z,3.50
2023-03-07T08:51:28.894Z,3.50
2023-03-07T08:53:02.054Z,3.50
2023-03-07T08:54:35.172Z,3.50
2023-03-07T08:56:09.732Z,3.50
2023-03-07T08:57:43.180Z,3.50
2023-03-07T08:59:16.248Z,3.50
2023-03-07T09:00:51.043Z,3.50
2023-03-07T09:02:24.380Z,3.60
2023-03-07T09:03:57.764Z,3.60
2023-03-07T09:05:31.812Z,3.60
2023-03-07T09:07:05.561Z,3.60
2023-03-07T09:08:38.647Z,3.60
2023-03-07T09:10:12.889Z,3.60
2023-03-07T09:11:45.985Z,3.60
2023-03-07T09:13:19.152Z,3.60
2023-03-07T09:14:55.460Z,3.60
2023-03-07T09:16:30.153Z,3.60
2023-03-07T09:18:03.411Z,3.60
2023-03-07T09:19:36.462Z,3.60
2023-03-07T09:21:09.488Z,3.60
2023-03-07T09:22:42.890Z,3.60
2023-03-07T09:24:16.311Z,3.60
2023-03-07T09:25:49.548Z,3.60
2023-03-07T09:27:22.612Z,3.70
2023-03-07T09:28:55.798Z,3.60
2023-03-07T09:30:28.907Z,3.60
2023-03-07T09:32:05.609Z,3.60
2023-03-07T09:33:39.150Z,3.60
2023-03-07T09:35:12.598Z,3.60
2023-03-07T09:36:45.656Z,3.60
2023-03-07T09:38:18.792Z,3.60
2023-03-07T09:39:51.877Z,3.60
2023-03-07T09:42:06.599Z,3.60
2023-03-07T09:43:48.618Z,3.70
2023-03-07T09:46:09.663Z,3.70
2023-03-07T09:48:35.047Z,3.70
2023-03-07T09:50:19.745Z,3.70
2023-03-07T09:51:58.667Z,3.70
2023-03-07T09:53:40.484Z,3.70
2023-03-07T09:55:18.677Z,3.70
2023-03-07T09:56:57.739Z,3.70
2023-03-07T09:58:31.148Z,3.70
2023-03-07T10:00:18.113Z,3.70
2023-03-07T10:01:59.431Z,3.70
2023-03-07T10:03:42.821Z,3.70
2023-03-07T10:05:33.244Z,3.70
2023-03-07T10:07:09.099Z,3.70
2023-03-07T10:08:42.383Z,3.70
2023-03-07T10:10:20.392Z,3.70
2023-03-07T10:12:18.355Z,3.70
2023-03-07T10:14:13.302Z,3.70
2023-03-07T10:15:49.567Z,3.70
2023-03-07T10:17:46.900Z,3.70
2023-03-07T10:19:36.556Z,3.70
2023-03-07T10:21:24.609Z,3.70
2023-03-07T10:23:13.710Z,3.70
2023-03-07T10:25:14.941Z,3.70
2023-03-07T10:26:56.089Z,3.70
2023-03-07T10:28:34.226Z,3.80
2023-03-07T10:30:17.930Z,3.80
2023-03-07T10:32:00.455Z,3.70
2023-03-07T10:33:35.426Z,3.80
2023-03-07T10:35:21.000Z,3.80
2023-03-07T10:37:08.414Z,3.80
2023-03-07T10:38:56.250Z,3.80
2023-03-07T10:40:37.549Z,3.80
2023-03-07T10:42:13.765Z,3.80
2023-03-07T10:43:48.266Z,3.80
2023-03-07T10:45:22.357Z,3.80
2023-03-07T10:47:00.082Z,3.80
2023-03-07T10:48:34.647Z,3.80
2023-03-07T10:50:28.857Z,3.80
2023-03-07T10:52:07.566Z,3.80
2023-03-07T10:53:41.333Z,3.80
2023-03-07T10:55:41.691Z,3.80
2023-03-07T10:57:17.256Z,3.80
2023-03-07T10:59:03.521Z,3.80
2023-03-07T11:00:36.853Z,3.80
2023-03-07T11:02:32.660Z,3.80
2023-03-07T11:04:08.311Z,3.80
2023-03-07T11:05:49.391Z,3.90
2023-03-07T11:07:29.500Z,3.80
2023-03-07T11:09:15.732Z,3.80
2023-03-07T11:10:48.906Z,3.90
2023-03-07T11:12:23.773Z,3.90
2023-03-07T11:14:08.945Z,3.90
2023-03-07T11:15:42.351Z,3.90
2023-03-07T11:17:22.951Z,3.90
2023-03-07T11:18:58.911Z,3.90
2023-03-07T11:20:51.045Z,3.90
2023-03-07T11:22:33.536Z,3.90
2023-03-07T11:24:27.688Z,4.00
2023-03-07T11:26:17.758Z,3.90
2023-03-07T11:27:55.159Z,3.90
2023-03-07T11:29:29.318Z,3.90
2023-03-07T11:31:16.135Z,3.90
2023-03-07T11:33:03.132Z,3.90
2023-03-07T11:34:44.548Z,3.90
2023-03-07T11:36:27.729Z,3.90
2023-03-07T11:38:13.105Z,3.90
2023-03-07T11:39:59.008Z,3.80
2023-03-07T11:41:36.749Z,3.80
2023-03-07T11:43:22.604Z,3.80
2023-03-07T11:45:04.506Z,3.80
2023-03-07T11:46:56.149Z,3.80
2023-03-07T11:48:52.160Z,3.80
2023-03-07T11:50:31.234Z,3.80
2023-03-07T11:52:24.100Z,3.80
2023-03-07T11:54:13.433Z,3.80
2023-03-07T11:56:00.832Z,3.80
2023-03-07T11:58:02.596Z,3.80
2023-03-07T12:00:26.589Z,3.90
2023-03-07T12:02:03.164Z,3.80
2023-03-07T12:04:18.544Z,3.90
2023-03-07T12:06:19.591Z,3.80
2023-03-07T12:08:19.654Z,3.80
2023-03-07T12:10:02.911Z,3.80
2023-03-07T12:12:01.444Z,3.80
2023-03-07T12:13:54.384Z,3.80
2023-03-07T12:15:40.493Z,3.80
2023-03-07T12:17:31.572Z,3.90
2023-03-07T12:19:42.214Z,3.80
2023-03-07T12:21:34.772Z,3.80
2023-03-07T12:23:20.050Z,3.80
2023-03-07T12:25:19.596Z,3.90
2023-03-07T12:27:01.093Z,3.90
2023-03-07T12:28:45.089Z,3.90
2023-03-07T12:30:25.129Z,3.80
2023-03-07T12:32:04.156Z,3.80
2023-03-07T12:34:02.195Z,3.90
2023-03-07T12:35:46.283Z,3.80
2023-03-07T12:37:26.141Z,3.90
2023-03-07T12:39:12.129Z,3.80
2023-03-07T12:40:52.547Z,3.80
2023-03-07T12:42:38.157Z,3.80
2023-03-07T12:44:28.170Z,3.80
2023-03-07T12:46:13.126Z,3.80
2023-03-07T12:48:05.456Z,3.80
2023-03-07T12:49:49.666Z,3.80
2023-03-07T12:51:30.206Z,3.80
2023-03-07T12:53:12.008Z,3.80
2023-03-07T12:54:58.994Z,3.80
2023-03-07T12:56:45.781Z,3.80
2023-03-07T12:58:27.433Z,3.80
2023-03-07T13:00:09.559Z,3.80
2023-03-07T13:01:49.641Z,3.80
2023-03-07T13:03:38.399Z,3.80
2023-03-07T13:05:21.280Z,3.80
2023-03-07T13:07:00.456Z,3.80
2023-03-07T13:08:34.789Z,3.80
2023-03-07T13:10:18.153Z,3.80
2023-03-07T13:12:32.575Z,3.80
2023-03-07T13:14:06.738Z,3.80
2023-03-07T13:16:05.599Z,3.80
2023-03-07T13:18:02.008Z,3.80
2023-03-07T13:19:53.897Z,3.80
2023-03-07T13:21:34.540Z,3.70
2023-03-07T13:23:29.820Z,3.70
2023-03-07T13:25:51.934Z,3.70
2023-03-07T13:27:28.708Z,3.70
2023-03-07T13:29:01.813Z,3.70
2023-03-07T13:30:34.888Z,3.70
2023-03-07T13:32:57.700Z,3.70
2023-03-07T13:34:48.085Z,3.60
2023-03-07T13:36:37.843Z,3.60
2023-03-07T13:38:32.692Z,3.60
2023-03-07T13:40:48.291Z,3.60
2023-03-07T13:42:47.601Z,3.60
2023-03-07T13:44:37.519Z,3.60
2023-03-07T13:46:51.579Z,3.60
2023-03-07T13:49:03.803Z,3.60
2023-03-07T13:51:00.742Z,3.60
2023-03-07T13:52:45.935Z,3.60
2023-03-07T13:54:21.677Z,3.60
2023-03-07T13:56:03.078Z,3.60
2023-03-07T13:57:41.660Z,3.70
2023-03-07T13:59:28.354Z,3.60
2023-03-07T14:01:06.078Z,3.60
2023-03-07T14:02:44.002Z,3.50
2023-03-07T14:04:37.004Z,3.50
2023-03-07T14:06:21.114Z,3.50
2023-03-07T14:07:54.869Z,3.50
2023-03-07T14:09:40.497Z,3.50
2023-03-07T14:11:23.774Z,3.50
2023-03-07T14:13:19.969Z,3.40
2023-03-07T14:15:14.147Z,3.40
2023-03-07T14:17:06.256Z,3.40
2023-03-07T14:18:58.924Z,3.40
2023-03-07T14:20:52.835Z,3.40
2023-03-07T14:22:43.234Z,3.30
2023-03-07T14:24:51.469Z,3.30
2023-03-07T14:26:33.470Z,3.30
2023-03-07T14:28:22.409Z,3.30
2023-03-07T14:29:58.236Z,3.20
2023-03-07T14:31:38.369Z,3.20
2023-03-07T14:33:18.902Z,3.20
2023-03-07T14:34:53.123Z,3.20
2023-03-07T14:36:31.191Z,3.20
2023-03-07T14:38:09.219Z,3.20
2023-03-07T14:39:55.514Z,3.20
2023-03-07T14:41:46.409Z,3.20
2023-03-07T14:43:37.650Z,3.20
2023-03-07T14:45:41.924Z,3.20
2023-03-07T14:47:36.150Z,3.20
2023-03-07T14:49:24.654Z,3.20
2023-03-07T14:51:13.838Z,3.20
2023-03-07T14:52:49.664Z,3.20
2023-03-07T14:54:29.492Z,3.20
2023-03-07T14:56:08.384Z,3.20
2023-03-07T14:57:45.995Z,3.20
2023-03-07T14:59:28.128Z,3.20
2023-03-07T15:01:07.107Z,3.20
2023-03-07T15:02:48.506Z,3.20
2023-03-07T15:04:27.874Z,3.20
2023-03-07T15:06:03.769Z,3.20
2023-03-07T15:07:38.346Z,3.20
2023-03-07T15:09:12.401Z,3.20
2023-03-07T15:10:50.541Z,3.10
2023-03-07T15:12:27.607Z,3.10
2023-03-07T15:14:05.383Z,3.10
2023-03-07T15:15:43.715Z,3.10
2023-03-07T15:17:21.770Z,3.10
2023-03-07T15:18:59.551Z,3.10
2023-03-07T15:20:34.409Z,3.10
2023-03-07T15:22:18.505Z,3.10
2023-03-07T15:23:54.539Z,3.00
2023-03-07T15:25:27.889Z,3.00
2023-03-07T15:27:02.445Z,3.00
2023-03-07T15:28:40.108Z,3.00
2023-03-07T15:30:26.654Z,3.00
2023-03-07T15:32:02.612Z,3.00
2023-03-07T15:33:37.606Z,3.00
2023-03-07T15:35:19.229Z,3.00
2023-03-07T15:36:52.734Z,3.00
2023-03-07T15:38:26.245Z,3.00
2023-03-07T15:40:02.065Z,3.00
2023-03-07T15:41:38.041Z,3.00
2023-03-07T15:43:26.463Z,3.00
2023-03-07T15:45:02.495Z,3.00
2023-03-07T15:46:38.388Z,3.00
2023-03-07T15:48:25.071Z,3.00
2023-03-07T15:50:04.404Z,3.00
2023-03-07T15:51:38.988Z,3.00
2023-03-07T15:53:27.646Z,3.00
2023-03-07T15:55:05.415Z,2.90
2023-03-07T15:56:40.515Z,2.90
2023-03-07T15:58:15.243Z,2.90
2023-03-07T15:59:52.637Z,2.80
2023-03-07T16:01:28.722Z,2.80
2023-03-07T16:03:26.401Z,2.80
2023-03-07T16:05:01.808Z,2.80
2023-03-07T16:06:42.507Z,2.80
2023-03-07T16:08:18.037Z,2.80
2023-03-07T16:09:51.339Z,2.80
2023-03-07T16:11:26.385Z,2.70
2023-03-07T16:13:12.575Z,2.80
2023-03-07T16:14:54.742Z,2.70
2023-03-07T16:16:31.229Z,2.70
2023-03-07T16:18:06.765Z,2.70
2023-03-07T16:19:40.116Z,2.70
2023-03-07T16:21:16.449Z,2.70
2023-03-07T16:22:49.859Z,2.60
2023-03-07T16:24:23.212Z,2.70
2023-03-07T16:25:58.543Z,2.60
2023-03-07T16:27:31.705Z,2.60
2023-03-07T16:29:05.585Z,2.60
2023-03-07T16:30:39.985Z,2.60
2023-03-07T16:32:16.225Z,2.60
2023-03-07T16:33:49.842Z,2.60
2023-03-07T16:35:25.405Z,2.60
2023-03-07T16:36:59.957Z,2.60
2023-03-07T16:38:33.104Z,2.50
2023-03-07T16:40:08.282Z,2.50
2023-03-07T16:41:46.845Z,2.50
2023-03-07T16:43:35.759Z,2.50
2023-03-07T16:45:19.801Z,2.50
2023-03-07T16:46:58.342Z,2.40
2023-03-07T16:48:31.573Z,2.50
2023-03-07T16:50:05.170Z,2.50
2023-03-07T16:51:38.300Z,2.40
2023-03-07T16:53:12.968Z,2.40
2023-03-07T16:54:46.080Z,2.40
2023-03-07T16:56:25.777Z,2.40
2023-03-07T16:58:04.317Z,2.40
2023-03-07T16:59:39.267Z,2.40
2023-03-07T17:01:15.109Z,2.40
2023-03-07T17:02:51.965Z,2.40
2023-03-07T17:04:25.101Z,2.40
2023-03-07T17:05:59.011Z,2.40
2023-03-07T17:07:32.137Z,2.40
2023-03-07T17:09:09.213Z,2.40
2023-03-07T17:10:44.870Z,2.50
2023-03-07T17:12:23.482Z,2.40
2023-03-07T17:14:01.378Z,2.40
2023-03-07T17:15:36.285Z,2.40
2023-03-07T17:17:17.635Z,2.40
2023-03-07T17:18:50.721Z,2.40
2023-03-07T17:20:24.445Z,2.40
2023-03-07T17:22:00.070Z,2.40
2023-03-07T17:23:33.366Z,2.40
2023-03-07T17:25:09.532Z,2.40
2023-03-07T17:26:46.016Z,2.40
2023-03-07T17:28:20.407Z,2.40
2023-03-07T17:29:55.435Z,2.30
2023-03-07T17:31:28.800Z,2.30
2023-03-07T17:33:02.164Z,2.30
2023-03-07T17:34:37.801Z,2.30
2023-03-07T17:36:12.426Z,2.30
2023-03-07T17:37:46.252Z,2.30
2023-03-07T17:39:20.391Z,2.30
2023-03-07T17:40:56.666Z,2.30
2023-03-07T17:42:29.812Z,2.30
2023-03-07T17:44:02.878Z,2.30
2023-03-07T17:45:36.238Z,2.30
2023-03-07T17:47:09.362Z,2.30
2023-03-07T17:48:42.554Z,2.30
2023-03-07T17:50:16.004Z,2.30
2023-03-07T17:51:49.573Z,2.30
2023-03-07T17:53:22.650Z,2.30
2023-03-07T17:54:55.786Z,2.30
2023-03-07T17:56:30.479Z,2.30
2023-03-07T17:58:04.267Z,2.30
2023-03-07T17:59:37.904Z,2.30
2023-03-07T18:01:14.937Z,2.30
2023-03-07T18:02:48.096Z,2.30
2023-03-07T18:04:21.248Z,2.30
2023-03-07T18:05:54.393Z,2.30
2023-03-07T18:07:27.568Z,2.20
2023-03-07T18:09:01.162Z,2.20
2023-03-07T18:10:34.415Z,2.20
2023-03-07T18:12:10.273Z,2.20
2023-03-07T18:13:43.563Z,2.20
2023-03-07T18:15:19.728Z,2.20
2023-03-07T18:16:53.487Z,2.20
2023-03-07T18:18:27.114Z,2.20
2023-03-07T18:20:00.731Z,2.20
2023-03-07T18:21:33.912Z,2.20
2023-03-07T18:23:07.445Z,2.20
2023-03-07T18:24:40.576Z,2.20
2023-03-07T18:26:15.741Z,2.20
2023-03-07T18:27:50.367Z,2.20
2023-03-07T18:29:24.741Z,2.20
2023-03-07T18:30:59.461Z,2.20
2023-03-07T18:32:34.055Z,2.20
2023-03-07T18:34:07.452Z,2.20
2023-03-07T18:35:40.916Z,2.20
2023-03-07T18:37:15.470Z,2.20
2023-03-07T18:38:49.908Z,2.20
2023-03-07T18:40:26.422Z,2.20
2023-03-07T18:42:04.985Z,2.20
2023-03-07T18:43:42.830Z,2.20
2023-03-07T18:45:16.635Z,2.20
2023-03-07T18:46:53.294Z,2.20
2023-03-07T18:48:26.681Z,2.20
2023-03-07T18:49:59.902Z,2.20
2023-03-07T18:51:35.922Z,2.20
2023-03-07T18:53:10.208Z,2.20
2023-03-07T18:54:43.636Z,2.20
2023-03-07T18:56:20.483Z,2.20
2023-03-07T18:57:53.721Z,2.30
2023-03-07T18:59:28.243Z,2.20
2023-03-07T19:01:11.925Z,2.20
2023-03-07T19:02:45.330Z,2.20
2023-03-07T19:04:21.119Z,2.20
2023-03-07T19:05:54.266Z,2.20
2023-03-07T19:07:28.718Z,2.20
2023-03-07T19:09:03.487Z,2.20
2023-03-07T19:10:37.101Z,2.10
2023-03-07T19:12:10.311Z,2.10
2023-03-07T19:13:44.568Z,2.20
2023-03-07T19:15:19.388Z,2.20
2023-03-07T19:16:52.669Z,2.10
2023-03-07T19:18:25.936Z,2.10
2023-03-07T19:20:00.305Z,2.10
2023-03-07T19:21:33.735Z,2.10
2023-03-07T19:23:06.935Z,2.10
2023-03-07T19:24:40.008Z,2.10
2023-03-07T19:26:18.041Z,2.10
2023-03-07T19:27:51.418Z,2.10
2023-03-07T19:29:24.611Z,2.10
2023-03-07T19:30:59.495Z,2.10
2023-03-07T19:32:33.237Z,2.10
2023-03-07T19:34:06.591Z,2.10
2023-03-07T19:35:39.828Z,2.20
2023-03-07T19:37:13.146Z,2.10
2023-03-07T19:38:48.709Z,2.10
2023-03-07T19:40:23.019Z,2.10
2023-03-07T19:41:58.811Z,2.10
2023-03-07T19:43:32.358Z,2.10
2023-03-07T19:45:06.710Z,2.10
2023-03-07T19:46:45.875Z,2.10
2023-03-07T19:48:19.257Z,2.00
2023-03-07T19:49:54.692Z,2.00
2023-03-07T19:51:28.183Z,2.10
2023-03-07T19:53:02.860Z,2.00
2023-03-07T19:54:36.908Z,2.00
2023-03-07T19:56:11.638Z,2.00
2023-03-07T19:57:49.165Z,2.00
2023-03-07T19:59:23.501Z,2.00
2023-03-07T20:00:58.772Z,2.00
2023-03-07T20:02:37.875Z,2.00
2023-03-07T20:04:16.041Z,2.00
2023-03-07T20:05:50.307Z,2.00
2023-03-07T20:07:23.674Z,2.00
2023-03-07T20:08:57.983Z,2.00
2023-03-07T20:10:31.301Z,2.00
2023-03-07T20:12:07.903Z,1.90
2023-03-07T20:13:43.046Z,2.00
2023-03-07T20:15:16.771Z,1.90
2023-03-07T20:16:50.108Z,1.90
2023-03-07T20:18:25.033Z,1.90
2023-03-07T20:19:58.600Z,2.00
2023-03-07T20:21:33.984Z,1.90
2023-03-07T20:23:07.074Z,2.00
2023-03-07T20:24:40.402Z,1.90
2023-03-07T20:26:16.929Z,1.90
2023-03-07T20:27:50.264Z,1.90
2023-03-07T20:29:24.493Z,1.90
2023-03-07T20:30:58.074Z,1.90
2023-03-07T20:32:31.629Z,1.90
2023-03-07T20:34:07.243Z,1.90
2023-03-07T20:35:40.554Z,1.90
2023-03-07T20:37:13.740Z,1.90
2023-03-07T20:38:50.528Z,1.90
2023-03-07T20:40:24.008Z,1.90
2023-03-07T20:41:57.178Z,1.90
2023-03-07T20:43:31.217Z,1.90
2023-03-07T20:45:05.285Z,1.90
2023-03-07T20:46:39.930Z,1.90
2023-03-07T20:48:13.556Z,1.90
2023-03-07T20:49:48.131Z,1.90
2023-03-07T20:51:27.037Z,1.90
2023-03-07T20:53:02.135Z,2.00
2023-03-07T20:54:38.484Z,1.90
2023-03-07T20:56:13.320Z,1.90
2023-03-07T20:57:46.830Z,1.90
2023-03-07T20:59:20.968Z,1.90
2023-03-07T21:00:54.380Z,1.90
2023-03-07T21:02:27.671Z,1.90
2023-03-07T21:04:06.003Z,1.90
2023-03-07T21:05:41.124Z,1.90
2023-03-07T21:07:17.258Z,1.90
2023-03-07T21:08:50.718Z,1.90
2023-03-07T21:10:25.944Z,1.90
2023-03-07T21:11:59.401Z,1.90
2023-03-07T21:13:37.008Z,1.90
2023-03-07T21:15:13.897Z,1.80
2023-03-07T21:16:47.344Z,1.80
2023-03-07T21:18:22.873Z,1.90
2023-03-07T21:19:56.476Z,1.90
2023-03-07T21:21:33.971Z,1.90
2023-03-07T21:23:10.455Z,1.80
2023-03-07T21:24:43.900Z,1.80
2023-03-07T21:26:21.678Z,1.80
2023-03-07T21:27:54.994Z,1.80
2023-03-07T21:29:30.507Z,1.80
2023-03-07T21:31:08.793Z,1.80
2023-03-07T21:32:42.567Z,1.80
2023-03-07T21:34:20.562Z,1.80
2023-03-07T21:35:53.688Z,1.80
2023-03-07T21:37:28.137Z,1.80
2023-03-07T21:39:04.051Z,1.80
2023-03-07T21:40:37.193Z,1.80